Terminal Aerodrome Forecast
Issued by NWS

Home | Current Version | Previous Version | Graphics & Text | Print | Product List | Glossary On
Versions: 1 2 3 4 5 6 7 8 9 10 11 12 13 14 15 16 17 18 19 20 21 22 23 24 25 26 27 28 29 30 31 32 33 34 35
000
FTUS43 KLOT 010900 CCA
TAFORD
TAF COR
KORD 010958Z 0110/0212 19008KT P6SM SCT060 SCT250
     FM011030 22007KT P6SM VCSH SCT009 BKN014
     FM011300 21010G18KT P6SM VCSH SCT020 BKN040
     FM011600 21013G20KT P6SM VCTS SCT020 BKN040CB
      TEMPO 0116/0119 VRB10G20KT 3SM SHRA SCT025 OVC035
     FM011900 23015G22KT P6SM SCT030 BKN040
     FM012300 24012KT P6SM SCT030 BKN040 PROB30 0123/0205 3SM TSRA
      SCT020 OVC040CB
     FM021000 30008KT P6SM SCT040=

USA.gov is the U.S. government's official web portal to all federal, state and local government web resources and services.